createdAt,value
2022-11-18T00:01:33.160Z,16.67
2022-11-18T00:04:01.592Z,18.10
2022-11-18T00:06:31.374Z,17.88
2022-11-18T00:09:01.391Z,16.35
2022-11-18T00:11:49.738Z,16.42
2022-11-18T00:14:23.314Z,17.98
2022-11-18T00:16:54.446Z,16.75
2022-11-18T00:19:25.088Z,17.23
2022-11-18T00:21:53.700Z,17.60
2022-11-18T00:24:22.966Z,17.85
2022-11-18T00:26:51.895Z,16.77
2022-11-18T00:29:26.337Z,20.10
2022-11-18T00:31:54.617Z,16.23
2022-11-18T00:34:23.667Z,18.85
2022-11-18T00:36:52.109Z,19.58
2022-11-18T00:39:21.967Z,18.83
2022-11-18T00:42:08.355Z,16.80
2022-11-18T00:44:38.039Z,17.50
2022-11-18T00:47:06.709Z,18.58
2022-11-18T00:49:35.101Z,18.48
2022-11-18T00:52:03.448Z,18.35
2022-11-18T00:54:31.755Z,16.13
2022-11-18T00:57:00.100Z,17.58
2022-11-18T00:59:30.879Z,18.20
2022-11-18T01:02:00.636Z,17.23
2022-11-18T01:04:29.026Z,15.27
2022-11-18T01:06:57.346Z,18.88
2022-11-18T01:09:25.714Z,18.75
2022-11-18T01:12:11.271Z,17.13
2022-11-18T01:14:41.891Z,17.27
2022-11-18T01:17:13.047Z,16.20
2022-11-18T01:19:41.351Z,18.08
2022-11-18T01:22:11.834Z,15.75
2022-11-18T01:24:40.135Z,16.13
2022-11-18T01:27:08.498Z,16.73
2022-11-18T01:29:37.783Z,16.92
2022-11-18T01:32:23.913Z,17.25
2022-11-18T01:34:54.868Z,18.15
2022-11-18T01:37:23.256Z,17.35
2022-11-18T01:39:51.586Z,19.23
2022-11-18T01:42:19.967Z,18.73
2022-11-18T01:44:59.303Z,19.17
2022-11-18T01:47:34.132Z,23.05
2022-11-18T01:50:04.592Z,20.90
2022-11-18T01:52:34.008Z,23.63
2022-11-18T01:55:08.583Z,24.75
2022-11-18T01:57:37.167Z,22.17
2022-11-18T02:00:07.754Z,22.67
2022-11-18T02:02:38.695Z,26.00
2022-11-18T02:05:12.034Z,24.80
2022-11-18T02:07:44.406Z,27.42
2022-11-18T02:10:21.392Z,27.58
2022-11-18T02:12:51.143Z,24.58
2022-11-18T02:15:30.452Z,24.50
2022-11-18T02:18:06.991Z,24.67
2022-11-18T02:20:41.119Z,23.60
2022-11-18T02:23:42.892Z,26.98
2022-11-18T02:26:46.381Z,31.63
2022-11-18T02:29:19.590Z,31.50
2022-11-18T02:31:56.389Z,32.13
2022-11-18T02:34:34.601Z,32.45
2022-11-18T02:37:08.450Z,36.22
2022-11-18T02:39:45.093Z,35.92
2022-11-18T02:42:16.125Z,39.72
2022-11-18T02:44:52.666Z,38.90
2022-11-18T02:47:26.074Z,35.88
2022-11-18T02:50:01.541Z,40.20
2022-11-18T02:52:31.066Z,43.92
2022-11-18T02:55:03.366Z,40.03
2022-11-18T02:57:32.413Z,42.00
2022-11-18T03:00:02.155Z,43.75
2022-11-18T03:02:41.221Z,42.10
2022-11-18T03:05:15.586Z,37.80
2022-11-18T03:07:47.742Z,41.75
2022-11-18T03:10:16.305Z,43.67
2022-11-18T03:18:07.516Z,44.40
2022-11-18T03:20:39.908Z,37.75
2022-11-18T03:23:13.026Z,43.75
2022-11-18T03:25:48.299Z,42.70
2022-11-18T03:28:21.643Z,43.90
2022-11-18T03:30:56.426Z,42.85
2022-11-18T03:33:33.692Z,42.33
2022-11-18T03:36:06.806Z,35.25
2022-11-18T03:38:39.493Z,38.42
2022-11-18T03:41:11.137Z,42.17
2022-11-18T03:43:44.735Z,41.25
2022-11-18T03:46:20.836Z,43.95
2022-11-18T03:48:52.099Z,43.92
2022-11-18T03:51:25.868Z,49.03
2022-11-18T03:54:07.766Z,43.17
2022-11-18T03:56:40.874Z,48.08
2022-11-18T03:59:14.322Z,41.92
2022-11-18T04:01:48.817Z,45.22
2022-11-18T04:04:19.434Z,49.30
2022-11-18T04:06:51.460Z,40.03
2022-11-18T04:09:23.982Z,43.08
2022-11-18T04:12:04.652Z,41.13
2022-11-18T04:14:34.839Z,37.35
2022-11-18T04:17:09.317Z,40.35
2022-11-18T04:19:38.157Z,40.97
2022-11-18T04:22:06.812Z,38.17
2022-11-18T04:24:35.281Z,36.58
2022-11-18T04:27:03.768Z,36.67
2022-11-18T04:29:32.590Z,32.70
2022-11-18T04:32:01.385Z,34.63
2022-11-18T04:34:31.882Z,37.30
2022-11-18T04:37:00.374Z,32.30
2022-11-18T04:39:28.717Z,31.55
2022-11-18T04:41:59.137Z,32.05
2022-11-18T04:44:31.378Z,31.20
2022-11-18T04:47:03.798Z,28.40
2022-11-18T04:49:34.526Z,26.45
2022-11-18T04:52:04.287Z,30.83
2022-11-18T04:54:32.604Z,29.30
2022-11-18T04:57:00.947Z,29.98
2022-11-18T04:59:30.951Z,29.13
2022-11-18T05:02:01.161Z,28.42
2022-11-18T05:04:35.894Z,31.50
2022-11-18T05:09:36.176Z,30.42
2022-11-18T05:12:24.478Z,33.60
2022-11-18T05:14:52.915Z,35.28
2022-11-18T05:17:21.227Z,35.58
2022-11-18T05:19:53.300Z,35.03
2022-11-18T05:22:21.704Z,37.17
2022-11-18T05:24:50.194Z,39.40
2022-11-18T05:27:18.786Z,43.55
2022-11-18T05:29:47.083Z,47.03
2022-11-18T05:32:15.377Z,54.72
2022-11-18T05:34:44.053Z,48.33
2022-11-18T05:37:16.410Z,63.17
2022-11-18T05:39:46.837Z,65.18
2022-11-18T05:42:34.700Z,66.30
2022-11-18T05:45:03.049Z,51.88
2022-11-18T05:47:51.382Z,47.35
2022-11-18T05:50:21.859Z,52.30
2022-11-18T05:52:51.600Z,47.08
2022-11-18T05:55:23.575Z,42.22
2022-11-18T05:57:51.865Z,46.42
2022-11-18T06:00:22.381Z,45.47
2022-11-18T06:02:52.881Z,37.85
2022-11-18T06:05:23.193Z,38.55
2022-11-18T06:07:54.800Z,33.25
2022-11-18T06:10:27.512Z,33.28
2022-11-18T06:13:00.507Z,34.40
2022-11-18T06:15:34.179Z,33.20
2022-11-18T06:18:08.473Z,29.40
2022-11-18T06:20:42.009Z,33.17
2022-11-18T06:23:12.066Z,28.10
2022-11-18T06:25:41.773Z,30.65
2022-11-18T06:28:13.518Z,27.95
2022-11-18T06:33:10.094Z,26.40
2022-11-18T06:35:38.487Z,32.85
2022-11-18T06:38:08.912Z,25.95
2022-11-18T06:40:38.622Z,27.83
2022-11-18T06:43:24.982Z,30.67
2022-11-18T06:46:09.381Z,27.75
2022-11-18T06:48:38.003Z,23.38
2022-11-18T06:51:09.182Z,23.95
2022-11-18T06:53:37.513Z,25.42
2022-11-18T06:56:08.540Z,25.98
2022-11-18T06:58:36.829Z,25.13
2022-11-18T07:01:12.006Z,22.35
2022-11-18T07:03:40.482Z,22.40
2022-11-18T07:06:09.615Z,24.73
2022-11-18T07:08:38.876Z,22.92
2022-11-18T07:11:10.919Z,22.88
2022-11-18T07:13:43.611Z,24.25
2022-11-18T07:18:43.198Z,18.13
2022-11-18T07:21:14.077Z,19.25
2022-11-18T07:23:42.553Z,22.60
2022-11-18T07:28:40.544Z,18.05
2022-11-18T07:38:35.264Z,17.55
2022-11-18T07:43:38.248Z,16.70
2022-11-18T07:46:14.361Z,18.87
2022-11-18T07:48:43.622Z,19.55
2022-11-18T07:51:12.239Z,16.73
2022-11-18T07:53:40.643Z,18.83
2022-11-18T07:56:10.113Z,15.15
2022-11-18T07:58:40.074Z,18.45
2022-11-18T08:01:09.876Z,15.82
2022-11-18T08:03:38.579Z,19.27
2022-11-18T08:06:09.266Z,15.63
2022-11-18T08:08:38.066Z,16.85
2022-11-18T08:13:39.658Z,11.75
2022-11-18T08:16:14.865Z,14.80
2022-11-18T08:18:43.384Z,12.88
2022-11-18T08:21:11.999Z,12.20
2022-11-18T08:23:42.590Z,11.00
2022-11-18T08:26:14.332Z,11.43
2022-11-18T08:28:45.551Z,11.60
2022-11-18T08:31:18.847Z,14.05
2022-11-18T08:36:22.606Z,12.85
2022-11-18T08:38:51.046Z,12.82
2022-11-18T08:41:22.320Z,14.95
2022-11-18T08:43:52.033Z,12.45
2022-11-18T08:46:23.132Z,12.90
2022-11-18T08:48:51.458Z,13.98
2022-11-18T08:51:20.201Z,14.30
2022-11-18T08:53:48.598Z,12.98
2022-11-18T08:56:21.465Z,11.35
2022-11-18T08:58:51.222Z,13.80
2022-11-18T09:01:19.621Z,12.30
2022-11-18T09:03:50.331Z,11.93
2022-11-18T09:06:20.733Z,12.25
2022-11-18T09:08:49.369Z,8.23
2022-11-18T09:11:19.814Z,9.77
2022-11-18T09:14:26.045Z,10.32
2022-11-18T09:16:38.222Z,9.70
2022-11-18T09:19:32.161Z,8.10
2022-11-18T09:34:26.481Z,8.05
2022-11-18T09:36:56.890Z,7.70
2022-11-18T09:39:26.021Z,6.70
2022-11-18T09:42:03.304Z,7.43
2022-11-18T09:44:49.190Z,7.53
2022-11-18T09:47:26.365Z,7.10
2022-11-18T09:49:59.693Z,12.63
2022-11-18T09:52:35.751Z,6.35
2022-11-18T09:57:39.564Z,7.72
2022-11-18T10:00:15.571Z,6.95
2022-11-18T10:03:01.534Z,7.15
2022-11-18T10:05:32.946Z,6.15
2022-11-18T10:08:13.451Z,5.50
2022-11-18T10:10:50.753Z,4.90
2022-11-18T10:13:29.104Z,5.57
2022-11-18T10:16:07.778Z,4.65
2022-11-18T10:19:00.793Z,4.70
2022-11-18T10:21:40.296Z,3.85
2022-11-18T10:24:18.176Z,4.68
2022-11-18T10:26:49.209Z,3.60
2022-11-18T10:29:19.637Z,3.45
2022-11-18T10:31:59.661Z,8.27
2022-11-18T10:34:33.417Z,3.75
2022-11-18T10:37:03.696Z,6.50
2022-11-18T10:39:32.259Z,14.05
2022-11-18T10:42:06.295Z,4.90
2022-11-18T11:51:36.185Z,11.18
2022-11-18T11:54:38.937Z,4.07
2022-11-18T11:57:18.990Z,4.38
2022-11-18T11:59:53.880Z,4.47
2022-11-18T12:02:49.049Z,3.17
2022-11-18T12:05:23.422Z,3.22
2022-11-18T12:07:56.768Z,3.55
2022-11-18T12:10:42.840Z,3.78
2022-11-18T12:13:22.569Z,3.10
2022-11-18T12:16:02.646Z,2.13
2022-11-18T12:18:39.187Z,2.90
2022-11-18T12:21:07.614Z,2.33
2022-11-18T12:23:37.414Z,5.00
2022-11-18T12:26:07.754Z,2.28
2022-11-18T12:28:41.339Z,3.00
2022-11-18T12:31:34.550Z,3.17
2022-11-18T12:34:19.638Z,3.83
2022-11-18T12:36:50.413Z,2.70
2022-11-18T12:39:58.628Z,2.33
2022-11-18T12:43:02.818Z,3.50
2022-11-18T12:45:59.190Z,3.05
2022-11-18T12:48:36.514Z,2.88
2022-11-18T12:51:49.690Z,4.00
2022-11-18T12:54:38.857Z,2.75
2022-11-18T12:57:19.720Z,3.70
2022-11-18T12:59:50.056Z,1.92
2022-11-18T13:02:25.210Z,4.15
2022-11-18T13:05:09.097Z,2.35
2022-11-18T13:08:02.106Z,2.80
2022-11-18T13:10:36.100Z,3.78
2022-11-18T13:13:04.680Z,3.08
2022-11-18T13:15:51.846Z,2.97
2022-11-18T13:18:21.607Z,2.30
2022-11-18T13:20:57.686Z,3.50
2022-11-18T13:23:47.145Z,2.75
2022-11-18T13:26:20.870Z,3.25
2022-11-18T13:29:15.237Z,2.35
2022-11-18T13:31:53.986Z,2.83
2022-11-18T13:34:25.707Z,4.22
2022-11-18T13:36:55.814Z,2.90
2022-11-18T13:39:28.400Z,2.28
2022-11-18T13:42:02.028Z,4.25
2022-11-18T13:44:35.118Z,2.45
2022-11-18T13:47:09.643Z,4.07
2022-11-18T13:49:50.384Z,2.80
2022-11-18T13:52:24.879Z,2.70
2022-11-18T13:54:54.784Z,1.45
2022-11-18T13:57:26.042Z,3.28
2022-11-18T13:59:56.101Z,2.28
2022-11-18T14:02:28.260Z,2.28
2022-11-18T14:04:59.075Z,2.08
2022-11-18T14:07:31.729Z,3.80
2022-11-18T14:10:05.486Z,2.70
2022-11-18T14:12:35.962Z,4.43
2022-11-18T14:15:15.504Z,2.33
2022-11-18T14:20:24.205Z,3.38
2022-11-18T14:22:57.103Z,2.70
2022-11-18T14:25:29.377Z,2.13
2022-11-18T14:27:58.980Z,2.60
2022-11-18T14:30:36.290Z,2.38
2022-11-18T14:33:14.953Z,1.88
2022-11-18T14:35:45.702Z,2.20
2022-11-18T14:41:09.948Z,11.80
2022-11-18T14:43:38.592Z,5.25
2022-11-18T14:46:13.280Z,5.70
2022-11-18T14:48:43.427Z,2.90
2022-11-18T14:51:14.861Z,2.50
2022-11-18T14:53:43.491Z,2.72
2022-11-18T14:56:18.797Z,1.98
2022-11-18T14:58:47.161Z,3.67
2022-11-18T15:01:15.704Z,4.22
2022-11-18T15:03:45.524Z,1.67
2022-11-18T15:06:17.832Z,2.47
2022-11-18T15:08:47.930Z,2.38
2022-11-18T15:11:16.623Z,2.30
2022-11-18T15:13:45.025Z,2.80
2022-11-18T15:16:16.542Z,3.05
2022-11-18T15:18:48.464Z,2.63
2022-11-18T15:21:17.744Z,2.75
2022-11-18T15:26:20.564Z,3.30
2022-11-18T15:28:49.195Z,2.58
2022-11-18T15:31:18.076Z,6.53
2022-11-18T15:33:48.591Z,2.22
2022-11-18T15:36:20.949Z,2.22
2022-11-18T15:38:49.970Z,2.53
2022-11-18T15:43:47.844Z,2.50
2022-11-18T15:46:16.921Z,2.33
2022-11-18T15:48:45.277Z,2.75
2022-11-18T15:51:15.514Z,2.60
2022-11-18T15:53:43.856Z,2.95
2022-11-18T15:56:16.379Z,2.97
2022-11-18T15:58:44.870Z,3.08
2022-11-18T16:01:13.300Z,2.17
2022-11-18T16:03:41.685Z,2.13
2022-11-18T16:06:10.137Z,4.80
2022-11-18T16:08:39.899Z,3.60
2022-11-18T16:11:30.777Z,3.00
2022-11-18T16:14:02.383Z,4.30
2022-11-18T16:16:31.346Z,4.40
2022-11-18T16:19:01.508Z,4.18
2022-11-18T16:21:31.093Z,5.03
2022-11-18T16:24:02.899Z,3.28
2022-11-18T16:29:00.822Z,3.28
2022-11-18T16:31:41.216Z,4.32
2022-11-18T16:34:10.846Z,3.35
2022-11-18T16:36:39.845Z,3.55
2022-11-18T16:39:11.545Z,4.20
2022-11-18T16:41:40.945Z,4.53
2022-11-18T16:44:10.957Z,10.60
2022-11-18T16:46:40.592Z,8.57
2022-11-18T16:49:12.303Z,7.88
2022-11-18T16:51:42.602Z,7.28
2022-11-18T16:54:19.153Z,6.07
2022-11-18T16:56:48.136Z,7.05
2022-11-18T16:59:18.609Z,7.43
2022-11-18T17:01:47.445Z,5.82
2022-11-18T17:04:15.924Z,11.82
2022-11-18T17:06:46.232Z,7.13
2022-11-18T17:09:18.226Z,7.25
2022-11-18T17:11:47.041Z,9.10
2022-11-18T17:14:17.750Z,10.10
2022-11-18T17:16:46.173Z,8.77
2022-11-18T17:19:16.584Z,10.10
2022-11-18T17:21:45.475Z,11.10
2022-11-18T17:24:16.290Z,9.45
2022-11-18T17:26:47.493Z,7.72
2022-11-18T17:29:16.607Z,9.05
2022-11-18T17:31:45.524Z,8.00
2022-11-18T17:34:15.295Z,9.50
2022-11-18T17:36:44.588Z,9.38
2022-11-18T17:39:13.721Z,19.08
2022-11-18T17:41:59.880Z,61.45
2022-11-18T17:44:30.092Z,10.40
2022-11-18T17:46:58.421Z,9.48
2022-11-18T17:49:28.883Z,7.78
2022-11-18T17:51:57.215Z,7.80
2022-11-18T17:54:25.536Z,7.85
2022-11-18T17:56:53.983Z,8.13
2022-11-18T17:59:23.104Z,12.13
2022-11-18T18:01:59.240Z,9.60
2022-11-18T18:04:28.049Z,24.80
2022-11-18T18:06:56.754Z,9.88
2022-11-18T18:09:30.708Z,6.68
2022-11-18T18:12:00.781Z,8.48
2022-11-18T18:14:28.176Z,8.23
2022-11-18T18:17:01.347Z,11.20
2022-11-18T18:19:29.645Z,10.32
2022-11-18T18:21:57.912Z,10.45
2022-11-18T18:24:26.305Z,13.43
2022-11-18T18:26:54.611Z,15.30
2022-11-18T18:29:22.958Z,18.40
2022-11-18T18:31:51.274Z,15.75
2022-11-18T18:34:21.662Z,14.52
2022-11-18T18:36:50.400Z,7.72
2022-11-18T18:39:18.814Z,8.90
2022-11-18T18:41:49.476Z,6.00
2022-11-18T18:44:18.906Z,10.48
2022-11-18T18:46:46.441Z,8.18
2022-11-18T18:49:20.425Z,9.23
2022-11-18T18:51:50.380Z,8.82
2022-11-18T18:54:20.894Z,11.68
2022-11-18T18:56:49.384Z,13.02
2022-11-18T18:59:17.975Z,11.07
2022-11-18T19:01:46.395Z,6.82
2022-11-18T19:04:15.975Z,6.20
2022-11-18T19:06:53.612Z,5.72
2022-11-18T19:09:28.030Z,21.17
2022-11-18T19:12:13.732Z,7.55
2022-11-18T19:14:42.258Z,8.00
2022-11-18T19:17:12.689Z,6.97
2022-11-18T19:19:59.840Z,5.70
2022-11-18T19:22:31.531Z,5.88
2022-11-18T19:27:30.413Z,7.93
2022-11-18T19:30:01.890Z,16.05
2022-11-18T19:32:32.293Z,28.20
2022-11-18T19:35:00.656Z,11.60
2022-11-18T19:37:28.925Z,7.75
2022-11-18T19:40:05.665Z,7.38
2022-11-18T19:42:39.571Z,7.82
2022-11-18T19:45:09.389Z,9.38
2022-11-18T19:47:37.909Z,7.55
2022-11-18T19:50:06.898Z,5.28
2022-11-18T19:52:35.294Z,8.77
2022-11-18T19:55:03.623Z,8.25
2022-11-18T19:57:33.031Z,9.13
2022-11-18T20:00:05.673Z,9.48
2022-11-18T20:02:39.010Z,9.07
2022-11-18T20:05:25.191Z,8.77
2022-11-18T20:07:56.453Z,7.80
2022-11-18T20:10:24.798Z,8.43
2022-11-18T20:12:53.553Z,8.40
2022-11-18T20:15:23.293Z,8.45
2022-11-18T20:17:51.641Z,10.15
2022-11-18T20:20:22.342Z,7.38
2022-11-18T20:22:50.716Z,9.65
2022-11-18T20:25:19.110Z,7.93
2022-11-18T20:27:49.534Z,8.40
2022-11-18T20:30:18.679Z,7.85
2022-11-18T20:32:48.465Z,10.55
2022-11-18T20:35:17.263Z,11.70
2022-11-18T20:37:45.902Z,8.68
2022-11-18T20:40:14.368Z,18.48
2022-11-18T20:42:59.882Z,20.65
2022-11-18T20:45:30.294Z,10.25
2022-11-18T20:48:00.195Z,10.18
2022-11-18T20:50:30.712Z,9.00
2022-11-18T20:52:59.111Z,9.88
2022-11-18T20:55:27.391Z,8.60
2022-11-18T20:57:55.681Z,10.02
2022-11-18T21:00:24.051Z,10.63
2022-11-18T21:02:54.466Z,8.63
2022-11-18T21:05:24.433Z,10.73
2022-11-18T21:07:53.535Z,11.90
2022-11-18T21:10:21.906Z,11.38
2022-11-18T21:13:07.482Z,14.35
2022-11-18T21:15:36.434Z,15.43
2022-11-18T21:18:05.150Z,15.10
2022-11-18T21:20:52.081Z,14.93
2022-11-18T21:23:22.509Z,12.57
2022-11-18T21:25:50.829Z,15.38
2022-11-18T21:28:19.243Z,12.95
2022-11-18T21:30:47.512Z,12.77
2022-11-18T21:33:15.811Z,11.20
2022-11-18T21:35:45.524Z,14.65
2022-11-18T21:38:16.104Z,17.90
2022-11-18T21:40:44.412Z,19.08
2022-11-18T21:43:12.784Z,13.57
2022-11-18T21:45:41.073Z,18.55
2022-11-18T21:48:09.386Z,14.73
2022-11-18T21:50:39.865Z,12.70
2022-11-18T21:53:10.304Z,11.23
2022-11-18T21:55:38.555Z,13.13
2022-11-18T21:58:06.947Z,10.13
2022-11-18T22:00:35.290Z,15.38
2022-11-18T22:03:06.651Z,15.57
2022-11-18T22:05:34.980Z,11.95
2022-11-18T22:08:07.800Z,7.15
2022-11-18T22:10:38.005Z,12.10
2022-11-18T22:13:07.672Z,14.23
2022-11-18T22:15:35.995Z,14.43
2022-11-18T22:18:04.377Z,11.90
2022-11-18T22:20:32.680Z,12.52
2022-11-18T22:23:02.254Z,11.13
2022-11-18T22:25:30.561Z,9.75
2022-11-18T22:28:00.202Z,6.85
2022-11-18T22:30:28.481Z,7.50
2022-11-18T22:32:56.721Z,8.40
2022-11-18T22:35:25.058Z,6.35
2022-11-18T22:37:53.554Z,8.30
2022-11-18T22:40:21.892Z,5.57
2022-11-18T22:42:52.603Z,7.80
2022-11-18T22:45:22.396Z,15.18
2022-11-18T22:47:50.984Z,13.93
2022-11-18T22:50:19.506Z,13.55
2022-11-18T22:52:47.787Z,12.68
2022-11-18T22:55:16.124Z,13.95
2022-11-18T22:57:46.542Z,15.43
2022-11-18T23:00:16.034Z,17.92
2022-11-18T23:02:45.814Z,14.80
2022-11-18T23:05:14.083Z,11.15
2022-11-18T23:07:42.503Z,12.93
2022-11-18T23:10:11.282Z,11.63
2022-11-18T23:12:57.127Z,12.75
2022-11-18T23:15:25.482Z,12.32
2022-11-18T23:17:55.203Z,11.38
2022-11-18T23:20:23.534Z,11.32
2022-11-18T23:22:53.592Z,12.43
2022-11-18T23:25:22.006Z,11.02
2022-11-18T23:27:54.070Z,10.20
2022-11-18T23:30:22.747Z,9.98
2022-11-18T23:32:55.679Z,10.45
2022-11-18T23:35:24.573Z,9.43
2022-11-18T23:37:54.067Z,8.57
2022-11-18T23:40:22.417Z,8.82
2022-11-18T23:42:50.698Z,10.95
2022-11-18T23:45:21.241Z,8.88
2022-11-18T23:47:51.932Z,9.15
2022-11-18T23:50:21.630Z,10.10
2022-11-18T23:52:49.957Z,10.60
2022-11-18T23:55:20.587Z,10.48
2022-11-18T23:57:51.325Z,7.75
